BCS93D LFPG-EBBR
Flight info
| Callsign | BCS93D |
|---|---|
| Flight time | N/A |
| Altitude | 21000 |
| Route | NURMO DCT CMB Z373 ARVOL |
| Aircraft | A306/H-SDE3FGHIRWY/LB1 |
Departure
| Time | 2026-05-09 00:42 |
|---|---|
| Airport | Charles de Gaulle International Airport (LFPG) |
Arrival
| Time | N/A |
|---|---|
| Airport | Brussels Airport (EBBR) |
| Time | Latitude | Longitude | Altitude | Speed | Heading |
|---|---|---|---|---|---|
| 2026-05-09 00:13 | 49.00004 | 2.54196 | 362 ft | 0 kts | 357° |
| 2026-05-09 00:37 | 49.00001 | 2.54196 | 363 ft | 2 kts | 357° |
| 2026-05-09 00:37 | 48.99976 | 2.54201 | 359 ft | 4 kts | 351° |
| 2026-05-09 00:37 | 48.99949 | 2.54205 | 363 ft | 4 kts | 1° |
| 2026-05-09 00:37 | 48.99922 | 2.54201 | 362 ft | 4 kts | 7° |
| 2026-05-09 00:38 | 48.99915 | 2.54200 | 361 ft | 1 kts | 6° |
| 2026-05-09 00:39 | 48.99930 | 2.54211 | 365 ft | 4 kts | 49° |
| 2026-05-09 00:40 | 48.99929 | 2.54289 | 365 ft | 12 kts | 87° |
| 2026-05-09 00:40 | 48.99931 | 2.54470 | 361 ft | 23 kts | 86° |
| 2026-05-09 00:40 | 48.99939 | 2.54746 | 362 ft | 28 kts | 116° |
| 2026-05-09 00:41 | 48.99732 | 2.54941 | 364 ft | 12 kts | 113° |
| 2026-05-09 00:41 | 48.99701 | 2.55032 | 367 ft | 10 kts | 122° |
| 2026-05-09 00:41 | 48.99641 | 2.55194 | 366 ft | 25 kts | 118° |
| 2026-05-09 00:41 | 48.99586 | 2.55516 | 365 ft | 44 kts | 84° |
| 2026-05-09 00:42 | 48.99631 | 2.56369 | 368 ft | 117 kts | 85° |
| 2026-05-09 00:42 | 48.99778 | 2.57939 | 393 ft | 180 kts | 85° |
| 2026-05-09 00:42 | 48.99798 | 2.59869 | 1381 ft | 185 kts | 91° |
| 2026-05-09 00:42 | 48.99751 | 2.61837 | 2638 ft | 181 kts | 92° |
| 2026-05-09 00:43 | 48.99728 | 2.63809 | 3383 ft | 193 kts | 90° |
| 2026-05-09 00:43 | 48.99826 | 2.65953 | 3778 ft | 222 kts | 79° |
| 2026-05-09 00:43 | 49.00251 | 2.68412 | 4031 ft | 250 kts | 78° |
| 2026-05-09 00:43 | 49.00552 | 2.71078 | 4732 ft | 261 kts | 85° |
| 2026-05-09 00:44 | 49.00677 | 2.73857 | 5574 ft | 265 kts | 86° |
| 2026-05-09 00:44 | 49.01069 | 2.76622 | 6433 ft | 271 kts | 69° |
| 2026-05-09 00:44 | 49.02064 | 2.79053 | 7212 ft | 278 kts | 45° |
| 2026-05-09 00:44 | 49.03733 | 2.80601 | 8022 ft | 284 kts | 14° |
| 2026-05-09 00:45 | 49.05710 | 2.80858 | 8888 ft | 286 kts | 357° |
| 2026-05-09 00:45 | 49.07702 | 2.80714 | 9757 ft | 289 kts | 354° |
| 2026-05-09 00:45 | 49.09727 | 2.80533 | 10484 ft | 297 kts | 354° |
| 2026-05-09 00:45 | 49.11815 | 2.80361 | 11199 ft | 299 kts | 355° |
| 2026-05-09 00:46 | 49.13869 | 2.80208 | 12220 ft | 293 kts | 355° |
| 2026-05-09 00:46 | 49.15886 | 2.80064 | 13075 ft | 293 kts | 355° |
| 2026-05-09 00:46 | 49.17928 | 2.79921 | 13828 ft | 296 kts | 356° |
| 2026-05-09 00:46 | 49.20003 | 2.79779 | 14492 ft | 299 kts | 356° |
| 2026-05-09 00:47 | 49.22077 | 2.79638 | 15149 ft | 301 kts | 355° |
| 2026-05-09 00:47 | 49.24184 | 2.79495 | 15801 ft | 303 kts | 355° |
| 2026-05-09 00:47 | 49.26300 | 2.79353 | 16426 ft | 306 kts | 355° |
| 2026-05-09 00:47 | 49.28440 | 2.79208 | 17055 ft | 308 kts | 355° |
| 2026-05-09 00:48 | 49.30599 | 2.79063 | 17682 ft | 311 kts | 355° |
| 2026-05-09 00:48 | 49.32711 | 2.78921 | 18261 ft | 314 kts | 355° |
| 2026-05-09 00:48 | 49.34934 | 2.78771 | 18789 ft | 316 kts | 355° |
| 2026-05-09 00:48 | 49.37145 | 2.78622 | 19294 ft | 319 kts | 355° |
| 2026-05-09 00:49 | 49.39368 | 2.78472 | 19798 ft | 321 kts | 356° |
| 2026-05-09 00:49 | 49.41615 | 2.78320 | 20290 ft | 324 kts | 356° |
| 2026-05-09 00:49 | 49.43868 | 2.78168 | 20794 ft | 326 kts | 356° |
| 2026-05-09 00:49 | 49.46163 | 2.78013 | 21061 ft | 337 kts | 356° |
| 2026-05-09 00:50 | 49.48575 | 2.77848 | 21089 ft | 353 kts | 356° |
| 2026-05-09 00:50 | 49.51083 | 2.77757 | 21084 ft | 369 kts | 2° |
| 2026-05-09 00:50 | 49.53616 | 2.78374 | 21087 ft | 384 kts | 15° |
| 2026-05-09 00:50 | 49.56158 | 2.79805 | 21088 ft | 396 kts | 21° |
| 2026-05-09 00:51 | 49.58725 | 2.81511 | 21080 ft | 399 kts | 23° |
| 2026-05-09 00:51 | 49.61268 | 2.83262 | 21079 ft | 398 kts | 23° |
| 2026-05-09 00:51 | 49.63796 | 2.85018 | 21079 ft | 398 kts | 24° |
| 2026-05-09 00:51 | 49.66333 | 2.86785 | 21084 ft | 398 kts | 24° |
| 2026-05-09 00:52 | 49.68857 | 2.88547 | 21086 ft | 398 kts | 24° |
| 2026-05-09 00:52 | 49.71372 | 2.90307 | 21085 ft | 398 kts | 24° |
| 2026-05-09 00:52 | 49.73874 | 2.92058 | 21088 ft | 398 kts | 24° |
| 2026-05-09 00:52 | 49.76396 | 2.93827 | 21088 ft | 398 kts | 24° |
| 2026-05-09 00:53 | 49.78957 | 2.95625 | 21091 ft | 398 kts | 24° |
| 2026-05-09 00:53 | 49.81437 | 2.97367 | 21091 ft | 399 kts | 24° |
| 2026-05-09 00:53 | 49.84000 | 2.99171 | 21090 ft | 399 kts | 24° |
| 2026-05-09 00:53 | 49.86477 | 3.00916 | 21091 ft | 399 kts | 24° |
| 2026-05-09 00:54 | 49.88998 | 3.02694 | 21095 ft | 399 kts | 24° |
| 2026-05-09 00:54 | 49.91551 | 3.04497 | 21097 ft | 399 kts | 24° |
| 2026-05-09 00:54 | 49.94080 | 3.06285 | 21094 ft | 399 kts | 24° |
| 2026-05-09 00:54 | 49.96620 | 3.08082 | 21095 ft | 399 kts | 24° |
| 2026-05-09 00:55 | 49.99132 | 3.09863 | 21091 ft | 399 kts | 24° |
| 2026-05-09 00:55 | 50.01674 | 3.11665 | 21089 ft | 399 kts | 24° |
| 2026-05-09 00:55 | 50.04194 | 3.13455 | 21092 ft | 399 kts | 24° |
| 2026-05-09 00:55 | 50.06716 | 3.15249 | 21089 ft | 399 kts | 24° |
| 2026-05-09 00:56 | 50.09222 | 3.17033 | 21089 ft | 399 kts | 24° |
| 2026-05-09 00:56 | 50.11741 | 3.18828 | 21089 ft | 399 kts | 24° |
| 2026-05-09 00:56 | 50.14275 | 3.20636 | 21090 ft | 399 kts | 24° |
| 2026-05-09 00:56 | 50.16764 | 3.22524 | 21089 ft | 399 kts | 27° |
| 2026-05-09 00:57 | 50.19231 | 3.24545 | 21089 ft | 398 kts | 27° |
| 2026-05-09 00:57 | 50.21668 | 3.26562 | 21092 ft | 398 kts | 27° |
| 2026-05-09 00:57 | 50.24085 | 3.28582 | 21092 ft | 398 kts | 28° |
| 2026-05-09 00:57 | 50.26535 | 3.30639 | 21097 ft | 398 kts | 28° |
| 2026-05-09 00:58 | 50.29005 | 3.32723 | 21096 ft | 398 kts | 28° |
| 2026-05-09 00:58 | 50.31441 | 3.34782 | 21108 ft | 409 kts | 28° |
| 2026-05-09 00:58 | 50.33961 | 3.36917 | 21037 ft | 418 kts | 28° |
| 2026-05-09 00:58 | 50.36540 | 3.39105 | 20394 ft | 419 kts | 28° |
| 2026-05-09 00:59 | 50.39126 | 3.41303 | 19576 ft | 422 kts | 28° |
| 2026-05-09 00:59 | 50.41706 | 3.43498 | 18824 ft | 422 kts | 28° |
| 2026-05-09 00:59 | 50.44285 | 3.45697 | 17929 ft | 424 kts | 28° |
| 2026-05-09 00:59 | 50.46885 | 3.47916 | 17016 ft | 425 kts | 28° |
| 2026-05-09 01:00 | 50.49486 | 3.50140 | 16253 ft | 423 kts | 28° |
| 2026-05-09 01:00 | 50.52057 | 3.52339 | 15599 ft | 414 kts | 28° |
| 2026-05-09 01:00 | 50.54526 | 3.54454 | 14954 ft | 392 kts | 28° |
| 2026-05-09 01:00 | 50.56832 | 3.56432 | 14347 ft | 373 kts | 28° |
| 2026-05-09 01:01 | 50.59053 | 3.58340 | 13721 ft | 357 kts | 28° |
| 2026-05-09 01:01 | 50.60358 | 3.59461 | 13310 ft | 349 kts | 28° |